createdAt,value
2023-01-04T00:01:11.004Z,27.13
2023-01-04T00:04:14.198Z,29.70
2023-01-04T00:07:17.368Z,28.77
2023-01-04T00:10:20.702Z,29.50
2023-01-04T00:13:25.301Z,32.20
2023-01-04T00:16:29.842Z,30.67
2023-01-04T00:19:33.505Z,26.33
2023-01-04T00:22:36.801Z,25.80
2023-01-04T00:25:40.037Z,24.70
2023-01-04T00:28:51.682Z,24.03
2023-01-04T00:31:57.035Z,26.10
2023-01-04T00:35:00.235Z,21.90
2023-01-04T00:38:03.668Z,22.30
2023-01-04T00:41:08.096Z,23.40
2023-01-04T00:44:13.373Z,24.47
2023-01-04T00:47:16.562Z,25.43
2023-01-04T00:50:19.815Z,23.37
2023-01-04T00:53:23.005Z,24.87
2023-01-04T00:56:26.147Z,27.40
2023-01-04T00:59:30.713Z,24.57
2023-01-04T01:02:34.112Z,24.37
2023-01-04T01:05:37.799Z,27.60
2023-01-04T01:08:41.019Z,24.80
2023-01-04T01:11:44.724Z,25.07
2023-01-04T01:14:49.454Z,25.00
2023-01-04T01:17:52.626Z,24.17
2023-01-04T01:20:55.814Z,22.17
2023-01-04T01:23:59.004Z,21.33
2023-01-04T01:27:02.171Z,23.03
2023-01-04T01:30:08.571Z,23.80
2023-01-04T01:33:12.436Z,24.30
2023-01-04T01:36:18.042Z,24.30
2023-01-04T01:39:21.367Z,23.83
2023-01-04T01:42:24.874Z,27.10
2023-01-04T01:45:32.801Z,29.30
2023-01-04T01:48:36.034Z,24.10
2023-01-04T01:51:39.959Z,23.03
2023-01-04T01:54:47.237Z,23.87
2023-01-04T01:57:52.979Z,23.77
2023-01-04T02:00:57.544Z,21.67
2023-01-04T02:04:01.114Z,24.13
2023-01-04T02:07:05.008Z,23.40
2023-01-04T02:10:09.161Z,23.50
2023-01-04T02:13:15.831Z,28.03
2023-01-04T02:16:31.440Z,28.07
2023-01-04T02:20:07.218Z,23.57
2023-01-04T02:23:52.195Z,27.37
2023-01-04T02:27:36.604Z,24.50
2023-01-04T02:31:09.129Z,24.20
2023-01-04T02:34:20.466Z,23.17
2023-01-04T02:37:33.115Z,25.23
2023-01-04T02:40:47.127Z,25.93
2023-01-04T02:44:14.416Z,21.73
2023-01-04T02:47:43.620Z,22.37
2023-01-04T02:50:52.240Z,20.37
2023-01-04T02:53:55.978Z,21.80
2023-01-04T02:57:32.530Z,22.40
2023-01-04T03:01:03.947Z,21.53
2023-01-04T03:04:37.000Z,21.23
2023-01-04T03:07:49.863Z,20.27
2023-01-04T03:11:01.004Z,21.83
2023-01-04T03:14:31.465Z,22.07
2023-01-04T03:17:35.305Z,26.30
2023-01-04T03:20:40.195Z,19.47
2023-01-04T03:24:07.014Z,21.97
2023-01-04T03:27:24.193Z,20.63
2023-01-04T03:30:48.651Z,24.80
2023-01-04T03:34:08.981Z,23.13
2023-01-04T03:37:19.767Z,25.00
2023-01-04T03:40:45.004Z,23.70
2023-01-04T03:44:11.263Z,21.50
2023-01-04T03:47:37.989Z,21.13
2023-01-04T03:50:46.942Z,24.40
2023-01-04T03:53:57.224Z,22.37
2023-01-04T03:57:00.961Z,19.87
2023-01-04T04:00:09.438Z,21.73
2023-01-04T04:03:12.571Z,23.73
2023-01-04T04:06:33.358Z,23.50
2023-01-04T04:09:37.947Z,21.90
2023-01-04T04:12:41.103Z,19.10
2023-01-04T04:15:44.342Z,21.73
2023-01-04T04:18:48.175Z,21.80
2023-01-04T04:21:51.391Z,20.00
2023-01-04T04:24:55.975Z,21.30
2023-01-04T04:27:59.194Z,22.83
2023-01-04T04:31:02.426Z,19.40
2023-01-04T04:34:06.254Z,23.83
2023-01-04T04:37:10.222Z,24.30
2023-01-04T04:40:40.264Z,22.00
2023-01-04T04:43:42.496Z,21.03
2023-01-04T04:46:46.430Z,26.43
2023-01-04T04:49:49.748Z,30.40
2023-01-04T04:52:56.247Z,28.97
2023-01-04T04:56:01.198Z,25.90
2023-01-04T04:59:04.808Z,22.03
2023-01-04T05:02:08.216Z,23.57
2023-01-04T05:05:11.617Z,25.20
2023-01-04T05:08:14.855Z,21.50
2023-01-04T05:11:39.865Z,19.13
2023-01-04T05:14:42.038Z,22.60
2023-01-04T05:17:45.209Z,21.17
2023-01-04T05:20:48.563Z,18.50
2023-01-04T05:23:51.759Z,19.70
2023-01-04T05:26:56.283Z,21.50
2023-01-04T05:30:16.930Z,20.60
2023-01-04T05:33:21.878Z,20.40
2023-01-04T05:36:25.042Z,19.00
2023-01-04T05:39:28.247Z,18.17
2023-01-04T05:42:32.849Z,16.07
2023-01-04T05:45:36.189Z,16.43
2023-01-04T05:48:39.399Z,15.13
2023-01-04T05:51:42.565Z,13.70
2023-01-04T05:54:45.927Z,15.00
2023-01-04T05:57:51.591Z,17.30
2023-01-04T06:00:55.596Z,21.20
2023-01-04T06:03:58.774Z,15.77
2023-01-04T06:07:01.973Z,16.27
2023-01-04T06:10:06.104Z,14.30
2023-01-04T06:13:11.062Z,19.90
2023-01-04T06:16:14.302Z,14.90
2023-01-04T06:19:17.485Z,18.03
2023-01-04T06:22:21.389Z,16.40
2023-01-04T06:25:24.568Z,16.40
2023-01-04T06:28:33.066Z,16.50
2023-01-04T06:31:38.643Z,15.50
2023-01-04T06:34:41.807Z,16.57
2023-01-04T06:37:44.944Z,19.50
2023-01-04T06:40:48.153Z,13.30
2023-01-04T06:43:52.767Z,14.80
2023-01-04T06:46:55.901Z,15.40
2023-01-04T06:49:59.103Z,13.57
2023-01-04T06:53:02.434Z,12.10
2023-01-04T06:56:05.976Z,18.40
2023-01-04T06:59:10.671Z,14.47
2023-01-04T07:02:16.192Z,18.20
2023-01-04T07:05:19.613Z,19.53
2023-01-04T07:08:22.903Z,20.07
2023-01-04T07:11:26.155Z,16.90
2023-01-04T07:14:30.690Z,25.37
2023-01-04T07:17:33.846Z,25.67
2023-01-04T07:20:37.372Z,28.57
2023-01-04T07:23:40.496Z,26.50
2023-01-04T07:26:43.617Z,25.13
2023-01-04T07:29:48.192Z,26.27
2023-01-04T07:32:53.512Z,29.83
2023-01-04T07:35:56.655Z,25.80
2023-01-04T07:39:01.016Z,27.33
2023-01-04T07:42:04.293Z,31.17
2023-01-04T07:45:09.783Z,31.73
2023-01-04T07:48:12.960Z,29.33
2023-01-04T07:51:16.132Z,30.00
2023-01-04T07:54:20.200Z,29.13
2023-01-04T07:57:23.377Z,30.97
2023-01-04T08:00:28.228Z,34.83
2023-01-04T08:03:31.399Z,37.27
2023-01-04T08:06:35.101Z,37.00
2023-01-04T08:09:38.364Z,31.27
2023-01-04T08:12:41.541Z,37.63
2023-01-04T08:15:46.159Z,27.17
2023-01-04T08:18:49.595Z,30.53
2023-01-04T08:21:52.830Z,29.90
2023-01-04T08:24:56.080Z,32.57
2023-01-04T08:27:59.253Z,30.10
2023-01-04T08:31:07.068Z,25.13
2023-01-04T08:34:11.198Z,28.10
2023-01-04T08:37:14.393Z,26.90
2023-01-04T08:40:17.706Z,27.73
2023-01-04T08:43:20.817Z,26.27
2023-01-04T08:46:25.425Z,25.93
2023-01-04T08:49:28.641Z,27.50
2023-01-04T08:52:31.837Z,27.07
2023-01-04T08:55:35.048Z,28.90
2023-01-04T08:58:39.256Z,29.47
2023-01-04T09:01:43.996Z,26.90
2023-01-04T09:04:47.268Z,28.03
2023-01-04T09:07:50.519Z,32.47
2023-01-04T09:10:53.659Z,33.10
2023-01-04T09:14:04.592Z,26.80
2023-01-04T09:17:12.000Z,28.50
2023-01-04T09:20:15.137Z,26.30
2023-01-04T09:23:18.323Z,27.07
2023-01-04T09:26:23.333Z,26.30
2023-01-04T09:29:27.506Z,28.00
2023-01-04T09:32:32.047Z,25.90
2023-01-04T09:35:35.464Z,26.03
2023-01-04T09:38:38.652Z,25.90
2023-01-04T09:41:49.303Z,23.63
2023-01-04T09:45:23.158Z,21.50
2023-01-04T09:48:26.172Z,22.43
2023-01-04T09:51:39.884Z,21.67
2023-01-04T09:54:48.859Z,20.00
2023-01-04T09:57:55.847Z,17.53
2023-01-04T10:01:04.807Z,20.97
2023-01-04T10:04:19.043Z,18.07
2023-01-04T10:07:28.359Z,21.27
2023-01-04T10:10:49.443Z,19.70
2023-01-04T10:14:15.031Z,18.33
2023-01-04T10:18:10.317Z,19.23
2023-01-04T10:21:26.720Z,16.83
2023-01-04T10:24:46.116Z,15.87
2023-01-04T10:28:01.966Z,15.40
2023-01-04T10:31:38.827Z,16.37
2023-01-04T10:34:42.685Z,14.50
2023-01-04T10:37:49.846Z,15.37
2023-01-04T10:40:53.867Z,15.87
2023-01-04T10:44:11.368Z,13.93
2023-01-04T10:47:23.190Z,13.07
2023-01-04T10:50:34.843Z,13.70
2023-01-04T10:53:44.692Z,13.80
2023-01-04T10:56:54.322Z,14.03
2023-01-04T11:00:02.777Z,13.73
2023-01-04T11:03:11.887Z,13.40
2023-01-04T11:06:19.573Z,11.23
2023-01-04T11:09:26.164Z,10.17
2023-01-04T11:12:30.049Z,9.60
2023-01-04T11:15:33.441Z,10.73
2023-01-04T11:18:40.609Z,10.20
2023-01-04T11:21:48.904Z,10.17
2023-01-04T11:28:25.023Z,8.93
2023-01-04T11:31:46.638Z,7.97
2023-01-04T11:34:52.805Z,8.80
2023-01-04T11:38:13.875Z,7.57
2023-01-04T11:41:21.635Z,6.83
2023-01-04T11:44:25.692Z,7.53
2023-01-04T11:47:33.002Z,6.80
2023-01-04T11:50:42.919Z,6.63
2023-01-04T11:53:46.561Z,7.70
2023-01-04T12:00:26.178Z,8.70
2023-01-04T12:03:32.129Z,9.47
2023-01-04T12:06:40.061Z,7.43
2023-01-04T12:09:43.344Z,8.37
2023-01-04T12:12:48.225Z,9.53
2023-01-04T12:16:03.336Z,10.60
2023-01-04T12:19:07.169Z,8.57
2023-01-04T12:22:22.569Z,8.97
2023-01-04T12:25:37.663Z,8.80
2023-01-04T12:28:44.591Z,10.07
2023-01-04T12:31:47.745Z,9.13
2023-01-04T12:34:51.116Z,8.80
2023-01-04T12:37:54.290Z,10.50
2023-01-04T12:40:57.592Z,8.47
2023-01-04T12:44:02.722Z,10.73
2023-01-04T12:47:44.145Z,6.90
2023-01-04T12:51:37.267Z,7.90
2023-01-04T12:54:48.103Z,7.95
2023-01-04T12:57:51.333Z,8.27
2023-01-04T13:01:24.886Z,7.00
2023-01-04T13:04:31.550Z,7.47
2023-01-04T13:07:44.024Z,6.47
2023-01-04T13:10:51.675Z,6.50
2023-01-04T13:14:01.874Z,7.30
2023-01-04T13:17:24.467Z,8.00
2023-01-04T13:20:30.816Z,7.60
2023-01-04T13:23:34.190Z,6.40
2023-01-04T13:26:43.038Z,6.13
2023-01-04T13:29:47.692Z,5.47
2023-01-04T13:33:24.817Z,5.57
2023-01-04T13:36:16.382Z,7.17
2023-01-04T13:39:20.725Z,6.87
2023-01-04T13:42:28.213Z,8.23
2023-01-04T13:46:07.893Z,7.63
2023-01-04T13:49:17.389Z,8.20
2023-01-04T13:52:49.767Z,7.30
2023-01-04T13:55:51.759Z,6.80
2023-01-04T13:58:55.353Z,7.30
2023-01-04T14:01:58.747Z,7.40
2023-01-04T14:05:03.417Z,6.70
2023-01-04T14:08:12.557Z,7.77
2023-01-04T14:11:41.035Z,8.33
2023-01-04T14:14:51.243Z,7.80
2023-01-04T14:17:55.789Z,8.17
2023-01-04T14:21:00.353Z,7.83
2023-01-04T14:24:03.561Z,8.63
2023-01-04T14:27:30.566Z,8.17
2023-01-04T14:30:33.753Z,7.43
2023-01-04T14:33:42.805Z,8.03
2023-01-04T14:36:47.515Z,8.23
2023-01-04T14:39:50.623Z,7.70
2023-01-04T14:42:53.871Z,8.03
2023-01-04T14:45:57.007Z,9.13
2023-01-04T14:49:00.253Z,7.83
2023-01-04T14:52:10.645Z,7.93
2023-01-04T14:55:15.009Z,8.57
2023-01-04T14:58:18.203Z,8.73
2023-01-04T15:01:21.485Z,7.60
2023-01-04T15:04:25.143Z,7.90
2023-01-04T15:07:36.458Z,10.43
2023-01-04T15:10:40.108Z,9.97
2023-01-04T15:13:44.399Z,9.23
2023-01-04T15:16:48.239Z,10.43
2023-01-04T15:19:51.412Z,10.63
2023-01-04T15:22:56.033Z,11.27
2023-01-04T15:26:01.873Z,11.13
2023-01-04T15:29:06.915Z,12.80
2023-01-04T15:32:10.301Z,10.77
2023-01-04T15:35:16.328Z,12.17
2023-01-04T15:38:20.898Z,12.17
2023-01-04T15:41:41.382Z,10.90
2023-01-04T15:44:45.816Z,7.77
2023-01-04T15:47:48.976Z,10.57
2023-01-04T15:50:52.151Z,13.77
2023-01-04T15:53:56.851Z,24.60
2023-01-04T15:57:00.017Z,21.77
2023-01-04T16:00:03.472Z,18.70
2023-01-04T16:03:07.337Z,15.40
2023-01-04T16:06:13.222Z,14.40
2023-01-04T16:09:17.820Z,14.33
2023-01-04T16:12:38.289Z,12.43
2023-01-04T16:15:41.903Z,13.00
2023-01-04T16:18:47.229Z,11.23
2023-01-04T16:21:50.395Z,11.93
2023-01-04T16:25:11.903Z,16.00
2023-01-04T16:28:15.636Z,14.63
2023-01-04T16:31:19.166Z,13.23
2023-01-04T16:34:22.397Z,14.40
2023-01-04T16:37:28.171Z,13.80
2023-01-04T16:40:32.783Z,13.67
2023-01-04T16:43:44.424Z,14.97
2023-01-04T16:46:48.022Z,14.43
2023-01-04T16:49:54.664Z,11.23
2023-01-04T16:52:57.862Z,14.10
2023-01-04T16:56:06.087Z,15.47
2023-01-04T16:59:10.242Z,17.10
2023-01-04T17:02:13.570Z,14.47
2023-01-04T17:05:17.119Z,13.53
2023-01-04T17:08:26.736Z,14.23
2023-01-04T17:15:23.589Z,11.90
2023-01-04T17:18:22.732Z,11.80
2023-01-04T17:21:35.944Z,13.57
2023-01-04T17:24:39.602Z,12.13
2023-01-04T17:27:44.156Z,12.63
2023-01-04T17:30:47.562Z,11.53
2023-01-04T17:33:51.449Z,13.57
2023-01-04T17:36:54.937Z,14.87
2023-01-04T17:39:58.572Z,14.33
2023-01-04T17:43:03.957Z,15.83
2023-01-04T17:46:09.336Z,13.57
2023-01-04T17:49:22.505Z,18.10
2023-01-04T17:52:31.268Z,13.97
2023-01-04T17:55:36.688Z,13.40
2023-01-04T17:58:42.119Z,13.30
2023-01-04T18:01:46.126Z,13.30
2023-01-04T18:04:50.698Z,14.73
2023-01-04T18:07:54.633Z,17.50
2023-01-04T18:11:07.363Z,15.80
2023-01-04T18:14:14.597Z,16.33
2023-01-04T18:17:19.705Z,16.23
2023-01-04T18:20:25.340Z,16.17
2023-01-04T18:23:32.422Z,25.37
2023-01-04T18:27:10.860Z,27.37
2023-01-04T18:30:07.373Z,24.97
2023-01-04T18:33:11.286Z,21.60
2023-01-04T18:36:15.085Z,17.50
2023-01-04T18:39:19.416Z,18.13
2023-01-04T18:42:24.422Z,18.37
2023-01-04T18:45:31.235Z,17.80
2023-01-04T18:48:36.200Z,16.93
2023-01-04T18:51:40.486Z,15.60
2023-01-04T18:54:45.431Z,17.13
2023-01-04T18:57:50.683Z,18.00
2023-01-04T19:01:05.116Z,19.27
2023-01-04T19:04:11.811Z,19.53
2023-01-04T19:07:15.638Z,17.07
2023-01-04T19:10:20.406Z,16.87
2023-01-04T19:13:25.025Z,17.33
2023-01-04T19:16:32.028Z,17.57
2023-01-04T19:19:37.454Z,19.00
2023-01-04T19:22:41.855Z,16.87
2023-01-04T19:25:46.350Z,22.30
2023-01-04T19:28:51.057Z,18.23
2023-01-04T19:31:56.607Z,17.70
2023-01-04T19:35:01.285Z,17.13
2023-01-04T19:38:05.532Z,15.73
2023-01-04T19:41:16.853Z,17.27
2023-01-04T19:44:21.313Z,19.00
2023-01-04T19:47:27.611Z,18.50
2023-01-04T19:50:32.193Z,18.50
2023-01-04T19:53:37.208Z,28.90
2023-01-04T19:56:41.955Z,21.10
2023-01-04T19:59:46.412Z,17.40
2023-01-04T20:02:53.725Z,18.03
2023-01-04T20:06:01.817Z,15.77
2023-01-04T20:09:06.094Z,18.77
2023-01-04T20:12:12.587Z,19.33
2023-01-04T20:15:17.891Z,22.90
2023-01-04T20:18:24.718Z,22.47
2023-01-04T20:21:29.005Z,22.57
2023-01-04T20:24:35.347Z,20.83
2023-01-04T20:27:40.176Z,19.10
2023-01-04T20:30:46.023Z,18.20
2023-01-04T20:33:53.471Z,20.53
2023-01-04T20:36:58.312Z,20.13
2023-01-04T20:40:02.414Z,21.60
2023-01-04T20:43:24.112Z,23.87
2023-01-04T20:46:33.348Z,21.13
2023-01-04T20:49:39.737Z,22.13
2023-01-04T20:52:45.651Z,17.97
2023-01-04T20:55:50.048Z,17.50
2023-01-04T20:58:54.821Z,14.43
2023-01-04T21:02:01.504Z,18.00
2023-01-04T21:05:07.925Z,17.87
2023-01-04T21:08:14.424Z,15.83
2023-01-04T21:11:19.966Z,18.87
2023-01-04T21:14:25.426Z,17.93
2023-01-04T21:17:29.429Z,16.73
2023-01-04T21:20:35.414Z,18.77
2023-01-04T21:23:40.740Z,19.30
2023-01-04T21:26:44.823Z,16.10
2023-01-04T21:29:48.518Z,16.73
2023-01-04T21:32:54.149Z,17.97
2023-01-04T21:36:11.005Z,21.90
2023-01-04T21:39:14.709Z,24.03
2023-01-04T21:42:18.127Z,22.00
2023-01-04T21:45:21.498Z,21.57
2023-01-04T21:48:24.882Z,23.27
2023-01-04T21:51:30.679Z,19.07
2023-01-04T21:54:33.931Z,19.83
2023-01-04T21:57:37.173Z,23.90
2023-01-04T22:00:40.609Z,21.47
2023-01-04T22:03:44.078Z,20.17
2023-01-04T22:06:48.644Z,19.83
2023-01-04T22:09:57.272Z,23.30
2023-01-04T22:13:00.869Z,22.90
2023-01-04T22:16:07.171Z,24.23
2023-01-04T22:19:13.217Z,19.10
2023-01-04T22:22:17.788Z,18.77
2023-01-04T22:25:21.326Z,19.20
2023-01-04T22:28:24.711Z,20.17
2023-01-04T22:31:27.967Z,21.00
2023-01-04T22:34:31.326Z,20.20
2023-01-04T22:37:35.906Z,19.47
2023-01-04T22:40:41.025Z,18.60
2023-01-04T22:43:44.875Z,23.53
2023-01-04T22:46:48.179Z,21.50
2023-01-04T22:49:51.450Z,26.90
2023-01-04T22:52:56.555Z,22.17
2023-01-04T22:56:18.440Z,26.03
2023-01-04T22:59:23.281Z,22.07
2023-01-04T23:02:26.539Z,19.47
2023-01-04T23:05:30.025Z,27.73
2023-01-04T23:08:34.841Z,26.80
2023-01-04T23:11:38.489Z,24.90
2023-01-04T23:14:41.657Z,25.17
2023-01-04T23:17:44.859Z,23.13
2023-01-04T23:20:54.145Z,20.87
2023-01-04T23:23:58.883Z,21.63
2023-01-04T23:27:02.122Z,21.80
2023-01-04T23:30:06.051Z,19.50
2023-01-04T23:33:09.287Z,20.33
2023-01-04T23:36:14.582Z,18.23
2023-01-04T23:39:19.141Z,21.80
2023-01-04T23:42:22.339Z,20.00
2023-01-04T23:45:25.764Z,17.47
2023-01-04T23:48:28.947Z,19.00
2023-01-04T23:51:32.163Z,17.00
2023-01-04T23:54:36.717Z,17.63
2023-01-04T23:57:39.924Z,16.07
